Time;durP1;ratioP1;P1;durP2;ratioP2;P2;SDS_P1;SDS_P2;PMS_P1;PMS_P2;Temp;Humidity;BMP_temperature;BMP_pressure;BME280_temperature;BME280_humidity;BME280_pressure;Samples;Min_cycle;Max_cycle;Signal;HPM_P1;HPM_P2
2023/09/05 13:49:32;;;;;;;9.35;4.00;;;29.60;68.40;;;;;;7584764;19;20366;-72
2023/09/05 13:52:06;;;;;;;4.75;3.70;;;29.60;69.70;;;;;;7604638;19;20025;-72
2023/09/05 13:54:40;;;;;;;9.65;3.70;;;30.00;69.40;;;;;;7624252;19;20028;-72
2023/09/05 13:57:12;;;;;;;8.00;4.03;;;30.10;71.20;;;;;;7636382;19;20097;-72
2023/09/05 13:59:45;;;;;;;5.07;3.55;;;30.40;68.80;;;;;;7632968;19;20025;-71
2023/09/05 14:02:17;;;;;;;5.60;3.57;;;30.50;67.30;;;;;;7637677;19;20014;-72
2023/09/05 14:04:50;;;;;;;5.90;4.00;;;30.30;66.60;;;;;;7627367;19;20014;-71
2023/09/05 14:07:25;;;;;;;5.07;3.65;;;30.40;67.20;;;;;;7611544;19;21046;-71
2023/09/05 14:09:57;;;;;;;6.97;3.67;;;30.30;66.90;;;;;;7618366;19;20014;-72
2023/09/05 14:12:29;;;;;;;7.30;4.17;;;30.30;67.70;;;;;;7597443;19;20073;-70
2023/09/05 14:15:02;;;;;;;7.23;4.37;;;29.80;67.00;;;;;;7586234;19;20022;-71
2023/09/05 14:17:35;;;;;;;5.07;3.90;;;29.80;66.40;;;;;;7614046;19;20637;-71
2023/09/05 14:20:08;;;;;;;5.30;4.10;;;30.00;67.00;;;;;;7604911;19;21118;-71
2023/09/05 14:22:41;;;;;;;5.05;3.80;;;30.10;65.90;;;;;;7591761;19;20494;-70
2023/09/05 14:25:13;;;;;;;4.80;3.97;;;30.00;67.00;;;;;;7612384;19;20018;-71
2023/09/05 14:27:45;;;;;;;5.30;3.73;;;30.00;66.50;;;;;;7628155;19;20026;-71
2023/09/05 14:30:18;;;;;;;5.70;4.68;;;30.10;66.70;;;;;;7598763;19;20286;-71
2023/09/05 14:32:50;;;;;;;6.07;3.77;;;30.00;66.50;;;;;;7609444;19;20593;-71
2023/09/05 14:35:23;;;;;;;4.20;3.80;;;30.30;66.10;;;;;;7611977;19;20310;-71
2023/09/05 14:37:55;;;;;;;5.90;3.58;;;29.60;66.70;;;;;;7631889;19;20263;-71
2023/09/05 14:40:28;;;;;;;6.32;4.18;;;29.40;65.80;;;;;;7602441;19;20109;-70
2023/09/05 14:43:00;;;;;;;6.95;4.55;;;28.90;67.00;;;;;;7622875;19;20045;-70
2023/09/05 14:45:34;;;;;;;5.32;4.07;;;28.20;68.10;;;;;;7616518;19;20003;-71
2023/09/05 14:48:07;;;;;;;5.30;4.15;;;28.10;68.90;;;;;;7609027;19;20026;-71
2023/09/05 14:50:42;;;;;;;8.10;4.35;;;27.60;69.70;;;;;;7618979;19;20014;-71
2023/09/05 14:53:15;;;;;;;6.60;4.03;;;27.30;71.40;;;;;;7593380;19;20666;-71
2023/09/05 14:55:47;;;;;;;10.18;3.90;;;26.70;72.60;;;;;;7564946;19;20025;-72
2023/09/05 14:58:19;;;;;;;5.32;3.70;;;26.50;71.50;;;;;;7592907;19;20042;-71
2023/09/05 15:00:52;;;;;;;11.23;4.35;;;26.30;73.90;;;;;;7562552;19;20275;-70
2023/09/05 15:03:24;;;;;;;6.63;3.78;;;26.10;73.50;;;;;;7558451;19;20018;-71
2023/09/05 15:05:56;;;;;;;7.60;4.07;;;25.80;74.30;;;;;;7547705;19;20019;-70
2023/09/05 15:08:29;;;;;;;6.67;4.07;;;25.60;74.70;;;;;;7572718;19;20014;-70
2023/09/05 15:11:01;;;;;;;9.00;4.10;;;25.50;75.90;;;;;;7558925;19;20010;-70
2023/09/05 15:13:34;;;;;;;9.48;4.25;;;25.50;76.20;;;;;;7569136;19;20018;-72
2023/09/05 15:16:07;;;;;;;6.88;4.07;;;25.30;76.60;;;;;;7571215;19;20506;-73
2023/09/05 15:18:40;;;;;;;6.85;4.25;;;25.10;76.60;;;;;;7563996;19;20526;-72
2023/09/05 15:21:12;;;;;;;7.13;4.18;;;24.90;76.60;;;;;;7559164;19;20011;-73
2023/09/05 15:23:45;;;;;;;5.32;4.25;;;24.80;76.40;;;;;;7560422;19;20025;-72
2023/09/05 15:26:17;;;;;;;7.80;4.15;;;24.70;75.80;;;;;;7560819;19;20026;-73
2023/09/05 15:28:50;;;;;;;7.40;3.63;;;24.80;76.60;;;;;;7569297;19;20030;-70
2023/09/05 15:31:22;;;;;;;7.25;3.78;;;24.70;76.50;;;;;;7567169;19;20015;-70
2023/09/05 15:33:54;;;;;;;8.25;3.92;;;24.60;77.30;;;;;;7573177;19;20021;-73
2023/09/05 15:36:27;;;;;;;6.38;4.10;;;24.60;77.20;;;;;;7586638;19;20018;-71
2023/09/05 15:38:59;;;;;;;9.45;4.10;;;24.70;76.40;;;;;;7595272;19;20026;-72
2023/09/05 15:41:32;;;;;;;8.07;3.70;;;24.70;76.10;;;;;;7592225;19;20018;-72
2023/09/05 15:44:05;;;;;;;7.70;3.85;;;24.70;76.60;;;;;;7551234;19;20466;-70
2023/09/05 15:46:39;;;;;;;5.72;3.70;;;24.70;77.50;;;;;;7584780;19;20034;-72
2023/09/05 15:49:11;;;;;;;10.68;4.00;;;24.70;77.50;;;;;;7567522;19;20010;-72
2023/09/05 15:51:44;;;;;;;5.72;3.80;;;24.70;76.90;;;;;;7568542;19;20644;-73
2023/09/05 15:54:17;;;;;;;5.55;3.72;;;24.70;76.00;;;;;;7581948;19;20640;-72
2023/09/05 15:56:50;;;;;;;5.38;3.42;;;24.40;75.90;;;;;;7585382;19;20006;-73
2023/09/05 15:59:25;;;;;;;6.65;3.70;;;24.40;74.30;;;;;;7576387;19;20026;-72
2023/09/05 16:01:58;;;;;;;5.82;3.50;;;24.30;74.50;;;;;;7576446;19;20735;-73
2023/09/05 16:04:31;;;;;;;6.30;3.83;;;24.20;75.20;;;;;;7561481;19;20021;-73
2023/09/05 16:07:04;;;;;;;8.70;3.80;;;24.30;77.00;;;;;;7549565;19;20284;-72
2023/09/05 16:09:37;;;;;;;5.38;3.53;;;24.40;76.00;;;;;;7572281;19;20047;-72
2023/09/05 16:12:10;;;;;;;;;;;24.70;75.30;;;;;;7513309;19;20018;-70
2023/09/05 16:14:45;;;;;;;5.63;3.93;;;25.00;75.00;;;;;;7559597;19;19929;-72
2023/09/05 16:17:21;;;;;;;7.38;3.65;;;25.00;75.00;;;;;;7585330;19;20017;-73
2023/09/05 16:19:54;;;;;;;7.55;4.20;;;24.80;74.50;;;;;;7586102;19;20037;-72
2023/09/05 16:22:27;;;;;;;5.77;3.90;;;24.60;75.10;;;;;;7579425;19;20018;-72
2023/09/05 16:25:00;;;;;;;6.00;3.97;;;24.40;75.30;;;;;;7584776;19;20941;-72
2023/09/05 16:27:33;;;;;;;5.35;4.05;;;24.20;76.00;;;;;;7567491;19;20055;-73
2023/09/05 16:30:08;;;;;;;13.40;4.10;;;24.10;76.70;;;;;;7571196;19;20021;-72
2023/09/05 16:32:42;;;;;;;7.72;4.32;;;23.90;78.20;;;;;;7540665;19;20132;-72
2023/09/05 16:35:15;;;;;;;8.20;4.32;;;23.80;78.70;;;;;;7553259;19;20018;-72
2023/09/05 16:37:49;;;;;;;6.15;3.90;;;23.60;78.50;;;;;;7567148;19;20114;-72
2023/09/05 16:40:22;;;;;;;;;;;23.40;79.50;;;;;;7575721;19;20600;-72
2023/09/05 16:42:54;;;;;;;8.55;3.88;;;23.30;78.60;;;;;;7571086;19;19929;-72
2023/09/05 16:45:27;;;;;;;8.73;3.97;;;23.20;79.70;;;;;;7541914;19;20041;-72
2023/09/05 16:48:00;;;;;;;5.13;3.70;;;23.00;80.70;;;;;;7572156;19;20620;-72
2023/09/05 16:50:33;;;;;;;10.32;4.45;;;22.90;80.80;;;;;;7557537;19;20017;-71
2023/09/05 16:53:06;;;;;;;9.80;4.57;;;22.80;81.20;;;;;;7546198;19;20126;-72
2023/09/05 16:55:38;;;;;;;6.95;4.43;;;22.70;80.40;;;;;;7567271;19;20062;-72
2023/09/05 16:58:11;;;;;;;6.20;4.00;;;22.60;80.70;;;;;;7566578;19;20101;-72
2023/09/05 17:00:43;;;;;;;9.13;4.18;;;22.40;81.20;;;;;;7565937;19;20011;-72
2023/09/05 17:03:16;;;;;;;7.30;4.22;;;22.30;80.90;;;;;;7557715;19;21587;-71
2023/09/05 17:05:48;;;;;;;5.03;3.90;;;22.20;81.30;;;;;;7561460;19;20121;-72
2023/09/05 17:08:21;;;;;;;7.93;3.90;;;22.10;82.50;;;;;;7569176;19;20058;-73
2023/09/05 17:10:54;;;;;;;9.85;4.20;;;22.10;81.50;;;;;;7575181;19;20022;-72
2023/09/05 17:13:27;;;;;;;10.50;5.60;;;22.00;81.50;;;;;;7566073;19;20047;-73
2023/09/05 17:16:00;;;;;;;6.65;3.75;;;21.90;82.60;;;;;;7565817;19;21445;-72
2023/09/05 17:18:32;;;;;;;12.40;4.60;;;21.80;82.80;;;;;;7568352;19;20043;-72
2023/09/05 17:21:04;;;;;;;8.27;3.88;;;21.70;83.50;;;;;;7579527;19;20025;-72
2023/09/05 17:23:38;;;;;;;6.90;4.47;;;21.60;83.20;;;;;;7572217;19;20050;-71
2023/09/05 17:26:12;;;;;;;5.82;4.13;;;21.60;83.20;;;;;;7573817;19;20018;-72
2023/09/05 17:28:45;;;;;;;7.97;4.22;;;21.50;83.30;;;;;;7575102;19;20022;-72
2023/09/05 17:31:19;;;;;;;5.07;3.70;;;21.50;84.00;;;;;;7566341;19;20018;-71
2023/09/05 17:33:52;;;;;;;7.43;4.57;;;21.40;84.10;;;;;;7582410;19;20018;-71
2023/09/05 17:36:24;;;;;;;6.68;4.40;;;21.40;84.40;;;;;;7564413;19;20608;-71
2023/09/05 17:38:57;;;;;;;5.95;4.07;;;21.30;85.80;;;;;;7568902;19;20021;-71
2023/09/05 17:41:29;;;;;;;8.88;4.35;;;21.20;85.50;;;;;;7568195;19;21174;-71
2023/09/05 17:44:01;;;;;;;11.43;4.47;;;21.10;86.20;;;;;;7541080;19;21340;-71
2023/09/05 17:46:34;;;;;;;5.93;3.78;;;21.10;86.60;;;;;;7565288;19;20021;-71
2023/09/05 17:49:06;;;;;;;5.13;4.05;;;21.00;87.30;;;;;;7567882;19;20014;-71
2023/09/05 17:51:38;;;;;;;7.90;4.57;;;20.90;88.80;;;;;;7566143;19;20018;-71
2023/09/05 17:54:11;;;;;;;7.68;4.38;;;20.80;89.30;;;;;;7579631;19;20011;-71
2023/09/05 17:56:43;;;;;;;9.85;4.45;;;20.60;90.00;;;;;;7573321;19;20014;-71
2023/09/05 17:59:16;;;;;;;5.72;3.90;;;20.50;90.20;;;;;;7564267;19;20010;-71
2023/09/05 18:01:51;;;;;;;7.88;4.30;;;20.30;90.80;;;;;;7559314;19;20093;-71
2023/09/05 18:04:23;;;;;;;7.53;4.32;;;20.10;91.40;;;;;;7564986;19;20014;-71
2023/09/05 18:06:56;;;;;;;5.75;4.88;;;20.00;91.90;;;;;;7577644;19;20014;-71
2023/09/05 18:09:28;;;;;;;9.20;5.60;;;19.80;92.40;;;;;;7577012;19;20125;-71
2023/09/05 18:12:01;;;;;;;8.20;4.63;;;19.80;92.70;;;;;;7554976;19;20010;-70
2023/09/05 18:14:36;;;;;;;8.43;4.65;;;19.60;92.80;;;;;;7561147;19;20021;-71
2023/09/05 18:17:09;;;;;;;10.65;4.75;;;19.50;93.30;;;;;;7574418;19;20040;-70
2023/09/05 18:19:45;;;;;;;8.13;4.40;;;19.40;93.80;;;;;;7587244;19;20027;-71
2023/09/05 18:22:17;;;;;;;7.20;4.97;;;19.30;94.20;;;;;;7580477;19;20014;-71
2023/09/05 18:24:49;;;;;;;12.10;4.93;;;19.20;94.40;;;;;;7577580;19;20025;-70
2023/09/05 18:27:22;;;;;;;7.40;4.95;;;19.20;94.70;;;;;;7587351;19;20018;-70
2023/09/05 18:29:54;;;;;;;6.22;4.78;;;19.10;94.80;;;;;;7561922;19;20049;-71
2023/09/05 18:32:26;;;;;;;9.98;5.07;;;18.90;95.00;;;;;;7548910;19;20011;-70
2023/09/05 18:35:00;;;;;;;6.50;4.78;;;18.80;95.40;;;;;;7556350;19;20015;-71
2023/09/05 18:37:32;;;;;;;11.57;5.45;;;18.70;95.90;;;;;;7572044;19;20034;-73
2023/09/05 18:40:07;;;;;;;7.63;5.37;;;18.70;96.10;;;;;;7562597;19;20589;-70
2023/09/05 18:42:39;;;;;;;10.10;5.47;;;18.60;96.40;;;;;;7556257;19;20275;-71
2023/09/05 18:45:11;;;;;;;9.73;5.20;;;18.50;96.80;;;;;;7551761;19;20018;-71
2023/09/05 18:47:44;;;;;;;13.93;5.80;;;18.40;97.00;;;;;;7531084;19;20920;-71
2023/09/05 18:50:18;;;;;;;14.57;5.55;;;18.30;97.20;;;;;;7560708;19;20018;-71
2023/09/05 18:52:50;;;;;;;9.67;5.60;;;18.20;97.40;;;;;;7563568;19;20015;-71
2023/09/05 18:55:22;;;;;;;10.35;4.63;;;18.10;97.70;;;;;;7575198;19;20082;-71
2023/09/05 18:57:55;;;;;;;10.93;5.43;;;18.00;98.00;;;;;;7560666;19;20021;-76
2023/09/05 19:00:30;;;;;;;11.75;5.22;;;18.00;98.40;;;;;;7548644;19;20026;-77
2023/09/05 19:03:10;;;;;;;12.00;5.72;;;17.90;98.70;;;;;;7573716;19;21635;-79
2023/09/05 19:05:43;;;;;;;10.30;5.88;;;17.80;99.20;;;;;;7540825;19;20014;-81
2023/09/05 19:08:16;;;;;;;8.43;5.95;;;17.80;99.40;;;;;;7562459;19;20019;-78
2023/09/05 19:10:49;;;;;;;9.57;5.87;;;17.70;99.70;;;;;;7567160;19;20115;-76
2023/09/05 19:13:22;;;;;;;9.88;5.32;;;17.70;99.90;;;;;;7549277;19;20010;-75
2023/09/05 19:15:55;;;;;;;10.90;5.47;;;17.60;99.90;;;;;;7575526;19;20033;-76
2023/09/05 19:18:28;;;;;;;10.90;5.87;;;17.60;99.90;;;;;;7574009;19;20530;-76
2023/09/05 19:21:01;;;;;;;10.30;5.78;;;17.50;99.90;;;;;;7547776;19;20018;-75
2023/09/05 19:23:34;;;;;;;12.18;5.65;;;17.40;99.90;;;;;;7549792;19;20044;-76
2023/09/05 19:26:06;;;;;;;8.20;5.60;;;17.40;99.90;;;;;;7578332;19;21964;-75
2023/09/05 19:28:39;;;;;;;10.93;5.18;;;17.40;99.90;;;;;;7560854;19;20028;-77
2023/09/05 19:31:14;;;;;;;12.02;6.07;;;17.30;99.90;;;;;;7547473;19;20018;-74
2023/09/05 19:33:48;;;;;;;10.45;6.28;;;17.20;99.90;;;;;;7518518;19;20022;-75
2023/09/05 19:36:21;;;;;;;12.00;6.40;;;17.10;99.90;;;;;;7494908;19;20114;-74
2023/09/05 19:38:56;;;;;;;12.73;6.32;;;17.10;99.90;;;;;;7485297;19;20057;-74
2023/09/05 19:41:29;;;;;;;12.52;6.18;;;17.00;99.90;;;;;;7565141;19;20060;-73
2023/09/05 19:44:01;;;;;;;11.10;6.35;;;17.00;99.90;;;;;;7549720;19;20048;-74
2023/09/05 19:46:34;;;;;;;14.02;6.95;;;16.90;99.90;;;;;;7577312;19;21023;-75
2023/09/05 19:49:06;;;;;;;11.27;6.60;;;16.90;99.90;;;;;;7558586;19;20018;-74
2023/09/05 19:51:39;;;;;;;12.15;6.07;;;16.80;99.90;;;;;;7551825;19;20025;-74
2023/09/05 19:54:13;;;;;;;12.73;6.28;;;16.80;99.90;;;;;;7581102;19;20006;-74
2023/09/05 19:56:46;;;;;;;13.88;6.07;;;16.70;99.90;;;;;;7546156;19;21188;-73
2023/09/05 19:59:20;;;;;;;10.48;6.35;;;16.70;99.90;;;;;;7554689;19;20014;-73
2023/09/05 20:01:52;;;;;;;9.90;6.88;;;16.60;99.90;;;;;;7558955;19;20014;-73
2023/09/05 20:04:25;;;;;;;10.82;6.57;;;16.60;99.90;;;;;;7557177;19;20093;-74
2023/09/05 20:06:57;;;;;;;11.15;5.95;;;16.60;99.90;;;;;;7556693;19;20010;-73
2023/09/05 20:09:32;;;;;;;13.07;6.80;;;16.60;99.90;;;;;;7524046;19;20018;-73
2023/09/05 20:12:06;;;;;;;10.50;6.03;;;16.50;99.90;;;;;;7551734;19;20021;-73
2023/09/05 20:14:39;;;;;;;11.68;5.97;;;16.40;99.90;;;;;;7533423;19;25599;-73
2023/09/05 20:17:11;;;;;;;11.30;6.90;;;16.40;99.90;;;;;;7579180;19;20022;-73
2023/09/05 20:19:44;;;;;;;10.95;6.20;;;16.40;99.90;;;;;;7501505;19;20508;-74
2023/09/05 20:22:16;;;;;;;11.65;6.60;;;16.40;99.90;;;;;;7541398;19;20831;-73
2023/09/05 20:24:48;;;;;;;8.90;6.03;;;16.30;99.90;;;;;;7554046;19;20027;-72
2023/09/05 20:27:22;;;;;;;13.82;6.25;;;16.30;99.90;;;;;;7562558;19;20014;-73
2023/09/05 20:29:55;;;;;;;11.20;5.97;;;16.30;99.90;;;;;;7567717;19;20527;-72
2023/09/05 20:32:27;;;;;;;8.30;5.67;;;16.20;99.90;;;;;;7569615;19;20130;-73
2023/09/05 20:34:59;;;;;;;14.82;7.10;;;16.10;99.90;;;;;;7573500;19;20515;-72
2023/09/05 20:37:31;;;;;;;12.25;6.97;;;16.00;99.90;;;;;;7559524;19;20996;-73
2023/09/05 20:40:05;;;;;;;9.75;6.07;;;16.00;99.90;;;;;;7562998;19;20023;-74
2023/09/05 20:42:37;;;;;;;9.35;5.70;;;15.90;99.90;;;;;;7541502;19;21024;-74
2023/09/05 20:45:12;;;;;;;9.07;6.37;;;16.00;99.90;;;;;;7564663;19;20022;-72
2023/09/05 20:47:44;;;;;;;8.68;6.32;;;15.90;99.90;;;;;;7559296;19;20018;-73
2023/09/05 20:50:17;;;;;;;13.02;6.35;;;15.80;99.90;;;;;;7573409;19;20098;-74
2023/09/05 20:52:49;;;;;;;13.38;7.30;;;15.70;99.90;;;;;;7549583;19;20015;-72
2023/09/05 20:55:21;;;;;;;9.63;7.03;;;15.70;99.90;;;;;;7563536;19;20010;-73
2023/09/05 20:57:53;;;;;;;9.60;6.70;;;15.70;99.90;;;;;;7573904;19;20510;-72
2023/09/05 21:00:28;;;;;;;14.20;7.15;;;15.70;99.90;;;;;;7563318;19;20371;-74
2023/09/05 21:03:02;;;;;;;10.02;6.75;;;15.70;99.90;;;;;;7575763;19;20022;-74
2023/09/05 21:05:35;;;;;;;10.68;6.93;;;15.70;99.90;;;;;;7568252;19;21264;-74
2023/09/05 21:08:08;;;;;;;12.23;7.35;;;15.60;99.90;;;;;;7581180;19;20571;-73
2023/09/05 21:10:40;;;;;;;8.82;6.75;;;15.60;99.90;;;;;;7578380;19;21188;-73
2023/09/05 21:13:13;;;;;;;10.50;6.35;;;15.60;99.90;;;;;;7550629;19;20019;-76
2023/09/05 21:15:54;;;;;;;12.10;6.90;;;15.50;99.90;;;;;;7584278;19;20064;-74
2023/09/05 21:18:27;;;;;;;10.35;6.45;;;15.50;99.90;;;;;;7586535;19;20896;-75
2023/09/05 21:21:00;;;;;;;;;;;15.40;99.90;;;;;;7601241;19;20114;-75
2023/09/05 21:23:32;;;;;;;12.15;6.85;;;15.40;99.90;;;;;;7583142;19;20009;-73
2023/09/05 21:26:05;;;;;;;19.77;7.30;;;15.30;99.90;;;;;;7601474;19;20018;-75
2023/09/05 21:28:37;;;;;;;11.55;7.43;;;15.20;99.90;;;;;;7597035;19;20015;-75
2023/09/05 21:31:09;;;;;;;17.20;6.90;;;15.20;99.90;;;;;;7573793;19;20479;-75
2023/09/05 21:33:43;;;;;;;10.55;6.63;;;15.20;99.90;;;;;;7562251;19;20019;-76
2023/09/05 21:36:15;;;;;;;10.32;6.50;;;15.20;99.90;;;;;;7582585;19;20090;-73
2023/09/05 21:38:47;;;;;;;10.43;6.20;;;15.20;99.90;;;;;;7555697;19;20022;-74
2023/09/05 21:41:21;;;;;;;8.98;6.32;;;15.20;99.90;;;;;;7577022;19;21988;-73
2023/09/05 21:43:53;;;;;;;11.43;7.03;;;15.10;99.90;;;;;;7584178;19;20042;-74
2023/09/05 21:46:25;;;;;;;11.82;6.93;;;15.00;99.90;;;;;;7562091;19;21383;-74
2023/09/05 21:48:59;;;;;;;11.90;7.25;;;15.00;99.90;;;;;;7575692;19;20018;-74
2023/09/05 21:51:31;;;;;;;12.27;7.72;;;14.90;99.90;;;;;;7587493;19;20031;-74
2023/09/05 21:54:03;;;;;;;14.77;7.88;;;14.90;99.90;;;;;;7582180;19;20564;-75
2023/09/05 21:56:37;;;;;;;11.13;6.93;;;14.90;99.90;;;;;;7569879;19;20868;-74
2023/09/05 21:59:10;;;;;;;10.18;7.38;;;15.00;99.90;;;;;;7569170;19;20034;-74
2023/09/05 22:01:42;;;;;;;13.55;7.20;;;15.00;99.90;;;;;;7573820;19;20078;-75
2023/09/05 22:04:15;;;;;;;10.63;7.18;;;15.10;99.90;;;;;;7575299;19;20066;-75
2023/09/05 22:06:48;;;;;;;9.50;6.80;;;15.10;99.90;;;;;;7581159;19;20018;-74
2023/09/05 22:09:20;;;;;;;11.45;7.03;;;15.10;99.90;;;;;;7596418;19;20010;-74
2023/09/05 22:11:53;;;;;;;10.55;6.63;;;15.10;99.90;;;;;;7547792;19;20903;-73
2023/09/05 22:14:25;;;;;;;9.65;6.97;;;15.10;99.90;;;;;;7538779;19;20052;-73
2023/09/05 22:16:58;;;;;;;10.07;6.88;;;15.20;99.90;;;;;;7591629;19;20022;-74
2023/09/05 22:19:32;;;;;;;11.77;6.97;;;15.20;99.90;;;;;;7075321;19;10000441;-73
2023/09/05 22:22:05;;;;;;;10.18;6.45;;;15.30;99.90;;;;;;7591125;19;20011;-77
2023/09/05 22:24:38;;;;;;;10.68;6.20;;;15.30;99.90;;;;;;7593753;19;20021;-75
2023/09/05 22:27:11;;;;;;;12.27;6.30;;;15.40;99.90;;;;;;7593974;19;20022;-75
2023/09/05 22:29:43;;;;;;;13.68;7.22;;;15.40;99.90;;;;;;7596416;19;20025;-74
2023/09/05 22:32:15;;;;;;;10.35;6.93;;;15.40;99.90;;;;;;7590188;19;20059;-74
2023/09/05 22:34:47;;;;;;;12.38;6.82;;;15.40;99.90;;;;;;7601992;19;20018;-73
2023/09/05 22:37:20;;;;;;;8.73;6.30;;;15.40;99.90;;;;;;7602987;19;20599;-74
2023/09/05 22:39:52;;;;;;;12.38;6.53;;;15.40;99.90;;;;;;7600446;19;20044;-75
2023/09/05 22:42:25;;;;;;;10.83;7.90;;;15.40;99.90;;;;;;7598897;19;20018;-74
2023/09/05 22:44:58;;;;;;;12.10;6.73;;;15.40;99.90;;;;;;7582611;19;20272;-74
2023/09/05 22:47:30;;;;;;;9.93;6.70;;;15.40;99.90;;;;;;7599527;19;20291;-75
2023/09/05 22:50:04;;;;;;;9.00;6.90;;;15.40;99.90;;;;;;7595124;19;20475;-74
2023/09/05 22:52:38;;;;;;;10.75;6.53;;;15.40;99.90;;;;;;7589426;19;20011;-76
2023/09/05 22:55:12;;;;;;;11.65;6.82;;;15.40;99.90;;;;;;7597180;19;20162;-75
2023/09/05 22:57:50;;;;;;;9.18;7.18;;;15.50;99.90;;;;;;7606372;19;20014;-74
2023/09/05 23:00:24;;;;;;;10.23;6.75;;;15.40;99.90;;;;;;7586827;19;20026;-75
2023/09/05 23:02:56;;;;;;;11.85;6.75;;;15.40;99.90;;;;;;7587000;19;20018;-74
2023/09/05 23:05:29;;;;;;;7.75;6.40;;;15.30;99.90;;;;;;7592650;19;20036;-76
2023/09/05 23:08:01;;;;;;;11.45;6.38;;;15.20;99.90;;;;;;7597169;19;20109;-74
2023/09/05 23:10:33;;;;;;;10.20;7.47;;;15.20;99.90;;;;;;7607074;19;20039;-74
2023/09/05 23:13:06;;;;;;;12.73;6.87;;;15.10;99.90;;;;;;7600147;19;20349;-74
2023/09/05 23:15:38;;;;;;;10.95;6.88;;;15.10;99.90;;;;;;7575564;19;20666;-75
2023/09/05 23:18:10;;;;;;;11.82;6.10;;;15.00;99.90;;;;;;7592321;19;20014;-74
2023/09/05 23:20:46;;;;;;;12.38;7.03;;;15.00;99.90;;;;;;7600260;19;20019;-74
2023/09/05 23:23:20;;;;;;;9.57;6.82;;;14.80;99.90;;;;;;7596531;19;20526;-75
2023/09/05 23:25:52;;;;;;;;;;;14.70;99.90;;;;;;7601376;19;20368;-73
2023/09/05 23:28:25;;;;;;;13.10;7.45;;;14.60;99.90;;;;;;7601524;19;19934;-74
2023/09/05 23:30:59;;;;;;;11.18;7.70;;;14.50;99.90;;;;;;7592794;19;20014;-74
2023/09/05 23:33:32;;;;;;;14.10;8.00;;;14.50;99.90;;;;;;7595544;19;20019;-75
2023/09/05 23:36:04;;;;;;;10.20;7.63;;;14.50;99.90;;;;;;7587963;19;20084;-75
2023/09/05 23:38:36;;;;;;;11.10;6.53;;;14.40;99.90;;;;;;7593477;19;20019;-73
2023/09/05 23:41:10;;;;;;;8.10;6.93;;;14.40;99.90;;;;;;7591427;19;20137;-74
2023/09/05 23:43:42;;;;;;;;;;;14.30;99.90;;;;;;7584751;19;20305;-73
2023/09/05 23:46:14;;;;;;;9.85;7.07;;;14.30;99.90;;;;;;7570391;19;19915;-74
2023/09/05 23:48:46;;;;;;;11.60;7.25;;;14.20;99.90;;;;;;7583627;19;20021;-73
2023/09/05 23:51:19;;;;;;;12.38;7.00;;;14.20;99.90;;;;;;7604903;19;20037;-74
2023/09/05 23:53:52;;;;;;;9.27;7.05;;;14.10;99.90;;;;;;7602001;19;20336;-74
2023/09/05 23:56:24;;;;;;;12.10;7.78;;;14.00;99.90;;;;;;7605588;19;20059;-74
2023/09/05 23:58:56;;;;;;;9.60;7.57;;;14.00;99.90;;;;;;7599309;19;20046;-74
